sensor_id;sensor_type;location;lat;lon;timestamp;P1;durP1;ratioP1;P2;durP2;ratioP2
43088;SDS011;28709;52.030;5.652;2022-08-21T00:02:19;4.20;;;2.03;;
43088;SDS011;28709;52.030;5.652;2022-08-21T00:04:46;3.55;;;1.77;;
43088;SDS011;28709;52.030;5.652;2022-08-21T00:07:13;2.92;;;1.75;;
43088;SDS011;28709;52.030;5.652;2022-08-21T00:09:39;4.57;;;2.00;;
43088;SDS011;28709;52.030;5.652;2022-08-21T00:12:05;2.90;;;2.10;;
43088;SDS011;28709;52.030;5.652;2022-08-21T00:14:32;2.63;;;1.88;;
43088;SDS011;28709;52.030;5.652;2022-08-21T00:16:58;4.47;;;2.25;;
43088;SDS011;28709;52.030;5.652;2022-08-21T00:19:23;3.17;;;2.13;;
43088;SDS011;28709;52.030;5.652;2022-08-21T00:21:53;6.20;;;2.78;;
43088;SDS011;28709;52.030;5.652;2022-08-21T00:24:19;5.95;;;2.00;;
43088;SDS011;28709;52.030;5.652;2022-08-21T00:26:47;4.47;;;2.10;;
43088;SDS011;28709;52.030;5.652;2022-08-21T00:29:13;6.50;;;2.25;;
43088;SDS011;28709;52.030;5.652;2022-08-21T00:31:40;4.45;;;2.53;;
43088;SDS011;28709;52.030;5.652;2022-08-21T00:34:07;4.00;;;2.20;;
43088;SDS011;28709;52.030;5.652;2022-08-21T00:36:32;3.55;;;2.00;;
43088;SDS011;28709;52.030;5.652;2022-08-21T00:38:59;3.63;;;2.30;;
43088;SDS011;28709;52.030;5.652;2022-08-21T00:41:25;2.97;;;1.90;;
43088;SDS011;28709;52.030;5.652;2022-08-21T00:43:52;2.88;;;2.17;;
43088;SDS011;28709;52.030;5.652;2022-08-21T00:46:18;4.75;;;2.30;;
43088;SDS011;28709;52.030;5.652;2022-08-21T00:48:44;6.75;;;2.88;;
43088;SDS011;28709;52.030;5.652;2022-08-21T00:51:14;4.80;;;2.40;;
43088;SDS011;28709;52.030;5.652;2022-08-21T00:53:48;3.15;;;2.15;;
43088;SDS011;28709;52.030;5.652;2022-08-21T00:56:18;3.88;;;2.47;;
43088;SDS011;28709;52.030;5.652;2022-08-21T00:58:45;3.88;;;2.45;;
43088;SDS011;28709;52.030;5.652;2022-08-21T01:01:12;3.97;;;2.28;;
43088;SDS011;28709;52.030;5.652;2022-08-21T01:03:40;2.97;;;1.90;;
43088;SDS011;28709;52.030;5.652;2022-08-21T01:06:06;6.00;;;2.88;;
43088;SDS011;28709;52.030;5.652;2022-08-21T01:08:34;7.57;;;2.60;;
43088;SDS011;28709;52.030;5.652;2022-08-21T01:11:00;4.07;;;2.60;;
43088;SDS011;28709;52.030;5.652;2022-08-21T01:13:27;5.80;;;2.00;;
43088;SDS011;28709;52.030;5.652;2022-08-21T01:15:55;4.18;;;2.35;;
43088;SDS011;28709;52.030;5.652;2022-08-21T01:18:24;2.35;;;2.05;;
43088;SDS011;28709;52.030;5.652;2022-08-21T01:21:02;7.00;;;2.38;;
43088;SDS011;28709;52.030;5.652;2022-08-21T01:23:37;9.60;;;1.95;;
43088;SDS011;28709;52.030;5.652;2022-08-21T01:26:05;2.50;;;1.80;;
43088;SDS011;28709;52.030;5.652;2022-08-21T01:28:34;3.97;;;1.77;;
43088;SDS011;28709;52.030;5.652;2022-08-21T01:31:22;4.70;;;2.50;;
43088;SDS011;28709;52.030;5.652;2022-08-21T01:33:50;6.78;;;3.28;;
43088;SDS011;28709;52.030;5.652;2022-08-21T01:36:16;4.63;;;2.30;;
43088;SDS011;28709;52.030;5.652;2022-08-21T01:38:42;4.13;;;2.63;;
43088;SDS011;28709;52.030;5.652;2022-08-21T01:41:08;4.40;;;2.25;;
43088;SDS011;28709;52.030;5.652;2022-08-21T01:43:33;4.22;;;2.38;;
43088;SDS011;28709;52.030;5.652;2022-08-21T01:45:59;2.90;;;2.17;;
43088;SDS011;28709;52.030;5.652;2022-08-21T01:48:24;3.83;;;2.25;;
43088;SDS011;28709;52.030;5.652;2022-08-21T01:50:50;5.03;;;2.38;;
43088;SDS011;28709;52.030;5.652;2022-08-21T01:53:16;5.18;;;2.83;;
43088;SDS011;28709;52.030;5.652;2022-08-21T01:55:42;5.88;;;2.92;;
43088;SDS011;28709;52.030;5.652;2022-08-21T01:58:08;5.03;;;2.80;;
43088;SDS011;28709;52.030;5.652;2022-08-21T02:00:34;4.47;;;2.70;;
43088;SDS011;28709;52.030;5.652;2022-08-21T02:02:59;6.53;;;3.08;;
43088;SDS011;28709;52.030;5.652;2022-08-21T02:05:25;5.88;;;2.63;;
43088;SDS011;28709;52.030;5.652;2022-08-21T02:07:52;6.15;;;2.70;;
43088;SDS011;28709;52.030;5.652;2022-08-21T02:10:24;4.22;;;2.55;;
43088;SDS011;28709;52.030;5.652;2022-08-21T02:12:52;6.20;;;2.70;;
43088;SDS011;28709;52.030;5.652;2022-08-21T02:15:18;4.10;;;2.15;;
43088;SDS011;28709;52.030;5.652;2022-08-21T02:17:49;6.32;;;2.75;;
43088;SDS011;28709;52.030;5.652;2022-08-21T02:22:48;5.70;;;2.65;;
43088;SDS011;28709;52.030;5.652;2022-08-21T02:25:14;5.00;;;3.20;;
43088;SDS011;28709;52.030;5.652;2022-08-21T02:27:41;4.30;;;2.65;;
43088;SDS011;28709;52.030;5.652;2022-08-21T02:30:10;3.85;;;2.42;;
43088;SDS011;28709;52.030;5.652;2022-08-21T02:32:38;6.65;;;2.80;;
43088;SDS011;28709;52.030;5.652;2022-08-21T02:35:04;4.43;;;2.63;;
43088;SDS011;28709;52.030;5.652;2022-08-21T02:37:30;3.72;;;2.47;;
43088;SDS011;28709;52.030;5.652;2022-08-21T02:39:55;13.52;;;3.72;;
43088;SDS011;28709;52.030;5.652;2022-08-21T02:42:21;6.72;;;3.03;;
43088;SDS011;28709;52.030;5.652;2022-08-21T02:44:47;7.00;;;3.08;;
43088;SDS011;28709;52.030;5.652;2022-08-21T02:47:13;6.68;;;3.03;;
43088;SDS011;28709;52.030;5.652;2022-08-21T02:49:39;6.70;;;3.17;;
43088;SDS011;28709;52.030;5.652;2022-08-21T02:52:04;6.30;;;3.10;;
43088;SDS011;28709;52.030;5.652;2022-08-21T02:54:31;4.57;;;2.97;;
43088;SDS011;28709;52.030;5.652;2022-08-21T02:56:57;5.82;;;3.10;;
43088;SDS011;28709;52.030;5.652;2022-08-21T02:59:22;7.65;;;3.17;;
43088;SDS011;28709;52.030;5.652;2022-08-21T03:01:48;5.88;;;3.33;;
43088;SDS011;28709;52.030;5.652;2022-08-21T03:04:14;4.65;;;3.33;;
43088;SDS011;28709;52.030;5.652;2022-08-21T03:06:39;5.43;;;3.33;;
43088;SDS011;28709;52.030;5.652;2022-08-21T03:09:05;4.93;;;2.92;;
43088;SDS011;28709;52.030;5.652;2022-08-21T03:11:31;10.20;;;3.75;;
43088;SDS011;28709;52.030;5.652;2022-08-21T03:13:57;6.97;;;3.70;;
43088;SDS011;28709;52.030;5.652;2022-08-21T03:16:22;4.47;;;3.40;;
43088;SDS011;28709;52.030;5.652;2022-08-21T03:18:48;9.43;;;3.60;;
43088;SDS011;28709;52.030;5.652;2022-08-21T03:21:13;6.18;;;3.42;;
43088;SDS011;28709;52.030;5.652;2022-08-21T03:23:39;5.43;;;3.15;;
43088;SDS011;28709;52.030;5.652;2022-08-21T03:26:07;8.93;;;3.85;;
43088;SDS011;28709;52.030;5.652;2022-08-21T03:28:32;5.45;;;3.30;;
43088;SDS011;28709;52.030;5.652;2022-08-21T03:30:58;5.95;;;3.30;;
43088;SDS011;28709;52.030;5.652;2022-08-21T03:33:24;7.97;;;4.03;;
43088;SDS011;28709;52.030;5.652;2022-08-21T03:36:00;5.78;;;3.40;;
43088;SDS011;28709;52.030;5.652;2022-08-21T03:38:28;5.97;;;2.97;;
43088;SDS011;28709;52.030;5.652;2022-08-21T03:40:56;5.60;;;3.33;;
43088;SDS011;28709;52.030;5.652;2022-08-21T03:43:22;7.70;;;3.72;;
43088;SDS011;28709;52.030;5.652;2022-08-21T03:45:47;5.63;;;3.33;;
43088;SDS011;28709;52.030;5.652;2022-08-21T03:48:13;6.30;;;3.53;;
43088;SDS011;28709;52.030;5.652;2022-08-21T03:50:40;11.15;;;3.78;;
43088;SDS011;28709;52.030;5.652;2022-08-21T03:53:08;5.70;;;3.50;;
43088;SDS011;28709;52.030;5.652;2022-08-21T03:55:35;8.73;;;4.15;;
43088;SDS011;28709;52.030;5.652;2022-08-21T03:58:02;8.13;;;3.33;;
43088;SDS011;28709;52.030;5.652;2022-08-21T04:00:28;6.88;;;3.88;;
43088;SDS011;28709;52.030;5.652;2022-08-21T04:02:54;8.00;;;3.38;;
43088;SDS011;28709;52.030;5.652;2022-08-21T04:05:19;8.35;;;3.88;;
43088;SDS011;28709;52.030;5.652;2022-08-21T04:07:58;5.05;;;2.90;;
43088;SDS011;28709;52.030;5.652;2022-08-21T04:10:26;6.07;;;3.22;;
43088;SDS011;28709;52.030;5.652;2022-08-21T04:12:53;6.05;;;3.17;;
43088;SDS011;28709;52.030;5.652;2022-08-21T04:15:20;5.15;;;3.22;;
43088;SDS011;28709;52.030;5.652;2022-08-21T04:17:47;4.82;;;2.83;;
43088;SDS011;28709;52.030;5.652;2022-08-21T04:20:13;5.60;;;2.88;;
43088;SDS011;28709;52.030;5.652;2022-08-21T04:22:40;2.78;;;2.40;;
43088;SDS011;28709;52.030;5.652;2022-08-21T04:25:06;8.52;;;3.15;;
43088;SDS011;28709;52.030;5.652;2022-08-21T04:27:32;6.18;;;3.10;;
43088;SDS011;28709;52.030;5.652;2022-08-21T04:29:58;10.05;;;3.10;;
43088;SDS011;28709;52.030;5.652;2022-08-21T04:32:25;7.47;;;3.05;;
43088;SDS011;28709;52.030;5.652;2022-08-21T04:34:50;5.35;;;3.17;;
43088;SDS011;28709;52.030;5.652;2022-08-21T04:37:22;6.03;;;3.00;;
43088;SDS011;28709;52.030;5.652;2022-08-21T04:39:47;8.80;;;3.00;;
43088;SDS011;28709;52.030;5.652;2022-08-21T04:42:13;4.20;;;2.78;;
43088;SDS011;28709;52.030;5.652;2022-08-21T04:44:39;6.75;;;2.63;;
43088;SDS011;28709;52.030;5.652;2022-08-21T04:47:06;5.03;;;3.15;;
43088;SDS011;28709;52.030;5.652;2022-08-21T04:49:31;5.50;;;3.13;;
43088;SDS011;28709;52.030;5.652;2022-08-21T04:51:58;3.53;;;2.40;;
43088;SDS011;28709;52.030;5.652;2022-08-21T04:54:24;3.28;;;2.70;;
43088;SDS011;28709;52.030;5.652;2022-08-21T04:56:54;5.07;;;2.50;;
43088;SDS011;28709;52.030;5.652;2022-08-21T04:59:28;3.60;;;2.83;;
43088;SDS011;28709;52.030;5.652;2022-08-21T05:02:00;6.90;;;3.50;;
43088;SDS011;28709;52.030;5.652;2022-08-21T05:04:28;5.90;;;3.60;;
43088;SDS011;28709;52.030;5.652;2022-08-21T05:06:56;4.70;;;3.05;;
43088;SDS011;28709;52.030;5.652;2022-08-21T05:09:25;4.25;;;3.10;;
43088;SDS011;28709;52.030;5.652;2022-08-21T05:11:51;6.22;;;3.45;;
43088;SDS011;28709;52.030;5.652;2022-08-21T05:14:18;4.63;;;3.40;;
43088;SDS011;28709;52.030;5.652;2022-08-21T05:16:44;4.63;;;3.33;;
43088;SDS011;28709;52.030;5.652;2022-08-21T05:19:10;9.27;;;3.78;;
43088;SDS011;28709;52.030;5.652;2022-08-21T05:21:37;9.63;;;3.88;;
43088;SDS011;28709;52.030;5.652;2022-08-21T05:24:06;8.95;;;5.03;;
43088;SDS011;28709;52.030;5.652;2022-08-21T05:26:32;8.25;;;4.32;;
43088;SDS011;28709;52.030;5.652;2022-08-21T05:28:58;6.93;;;4.40;;
43088;SDS011;28709;52.030;5.652;2022-08-21T05:31:24;9.25;;;4.43;;
43088;SDS011;28709;52.030;5.652;2022-08-21T05:33:50;6.97;;;4.15;;
43088;SDS011;28709;52.030;5.652;2022-08-21T05:36:16;5.95;;;4.18;;
43088;SDS011;28709;52.030;5.652;2022-08-21T05:38:43;7.15;;;4.40;;
43088;SDS011;28709;52.030;5.652;2022-08-21T05:41:08;9.02;;;4.40;;
43088;SDS011;28709;52.030;5.652;2022-08-21T05:43:34;8.90;;;4.80;;
43088;SDS011;28709;52.030;5.652;2022-08-21T05:46:04;11.88;;;4.32;;
43088;SDS011;28709;52.030;5.652;2022-08-21T05:48:31;11.75;;;4.38;;
43088;SDS011;28709;52.030;5.652;2022-08-21T05:50:58;5.30;;;4.22;;
43088;SDS011;28709;52.030;5.652;2022-08-21T05:53:29;8.05;;;4.60;;
43088;SDS011;28709;52.030;5.652;2022-08-21T05:55:54;9.90;;;5.43;;
43088;SDS011;28709;52.030;5.652;2022-08-21T05:58:20;9.73;;;5.18;;
43088;SDS011;28709;52.030;5.652;2022-08-21T06:00:48;6.60;;;4.47;;
43088;SDS011;28709;52.030;5.652;2022-08-21T06:03:23;6.78;;;4.00;;
43088;SDS011;28709;52.030;5.652;2022-08-21T06:05:50;8.32;;;4.53;;
43088;SDS011;28709;52.030;5.652;2022-08-21T06:08:16;6.43;;;4.43;;
43088;SDS011;28709;52.030;5.652;2022-08-21T06:10:43;8.13;;;5.10;;
43088;SDS011;28709;52.030;5.652;2022-08-21T06:13:10;6.45;;;4.18;;
43088;SDS011;28709;52.030;5.652;2022-08-21T06:15:36;12.38;;;3.65;;
43088;SDS011;28709;52.030;5.652;2022-08-21T06:18:02;8.70;;;4.05;;
43088;SDS011;28709;52.030;5.652;2022-08-21T06:20:28;19.65;;;6.65;;
43088;SDS011;28709;52.030;5.652;2022-08-21T06:22:54;5.13;;;3.38;;
43088;SDS011;28709;52.030;5.652;2022-08-21T06:25:20;7.65;;;3.53;;
43088;SDS011;28709;52.030;5.652;2022-08-21T06:27:46;7.35;;;3.47;;
43088;SDS011;28709;52.030;5.652;2022-08-21T06:30:12;6.78;;;3.25;;
43088;SDS011;28709;52.030;5.652;2022-08-21T06:32:38;7.75;;;3.13;;
43088;SDS011;28709;52.030;5.652;2022-08-21T06:35:04;7.50;;;4.40;;
43088;SDS011;28709;52.030;5.652;2022-08-21T06:37:31;7.45;;;3.00;;
43088;SDS011;28709;52.030;5.652;2022-08-21T06:39:57;8.93;;;3.47;;
43088;SDS011;28709;52.030;5.652;2022-08-21T06:42:23;6.70;;;3.22;;
43088;SDS011;28709;52.030;5.652;2022-08-21T06:44:48;8.95;;;3.33;;
43088;SDS011;28709;52.030;5.652;2022-08-21T06:47:14;7.28;;;3.00;;
43088;SDS011;28709;52.030;5.652;2022-08-21T06:49:40;8.02;;;3.40;;
43088;SDS011;28709;52.030;5.652;2022-08-21T06:52:10;6.85;;;3.15;;
43088;SDS011;28709;52.030;5.652;2022-08-21T06:54:37;15.35;;;3.70;;
43088;SDS011;28709;52.030;5.652;2022-08-21T06:57:04;6.40;;;2.95;;
43088;SDS011;28709;52.030;5.652;2022-08-21T06:59:30;10.30;;;3.05;;
43088;SDS011;28709;52.030;5.652;2022-08-21T07:01:57;9.45;;;3.60;;
43088;SDS011;28709;52.030;5.652;2022-08-21T07:04:23;6.40;;;2.95;;
43088;SDS011;28709;52.030;5.652;2022-08-21T07:06:49;5.93;;;2.53;;
43088;SDS011;28709;52.030;5.652;2022-08-21T07:09:15;7.78;;;3.00;;
43088;SDS011;28709;52.030;5.652;2022-08-21T07:11:41;9.50;;;4.07;;
43088;SDS011;28709;52.030;5.652;2022-08-21T07:14:07;10.23;;;2.55;;
43088;SDS011;28709;52.030;5.652;2022-08-21T07:16:33;9.52;;;3.08;;
43088;SDS011;28709;52.030;5.652;2022-08-21T07:18:58;8.55;;;3.88;;
43088;SDS011;28709;52.030;5.652;2022-08-21T07:21:24;10.10;;;2.90;;
43088;SDS011;28709;52.030;5.652;2022-08-21T07:23:50;4.20;;;2.38;;
43088;SDS011;28709;52.030;5.652;2022-08-21T07:26:17;8.95;;;3.30;;
43088;SDS011;28709;52.030;5.652;2022-08-21T07:28:45;12.98;;;2.95;;
43088;SDS011;28709;52.030;5.652;2022-08-21T07:31:13;8.38;;;3.25;;
43088;SDS011;28709;52.030;5.652;2022-08-21T07:33:41;6.68;;;2.35;;
43088;SDS011;28709;52.030;5.652;2022-08-21T07:36:07;6.47;;;3.00;;
43088;SDS011;28709;52.030;5.652;2022-08-21T07:38:33;5.85;;;2.80;;
43088;SDS011;28709;52.030;5.652;2022-08-21T07:41:00;7.03;;;2.92;;
43088;SDS011;28709;52.030;5.652;2022-08-21T07:43:27;6.72;;;2.60;;
43088;SDS011;28709;52.030;5.652;2022-08-21T07:45:54;8.85;;;3.17;;
43088;SDS011;28709;52.030;5.652;2022-08-21T07:48:20;8.85;;;2.72;;
43088;SDS011;28709;52.030;5.652;2022-08-21T07:50:47;6.10;;;1.92;;
43088;SDS011;28709;52.030;5.652;2022-08-21T07:53:14;9.93;;;3.15;;
43088;SDS011;28709;52.030;5.652;2022-08-21T07:55:39;7.43;;;2.38;;
43088;SDS011;28709;52.030;5.652;2022-08-21T07:58:05;3.92;;;2.15;;
43088;SDS011;28709;52.030;5.652;2022-08-21T08:00:31;12.57;;;3.30;;
43088;SDS011;28709;52.030;5.652;2022-08-21T08:02:57;9.18;;;2.92;;
43088;SDS011;28709;52.030;5.652;2022-08-21T08:05:25;11.25;;;3.22;;
43088;SDS011;28709;52.030;5.652;2022-08-21T08:07:52;8.43;;;2.78;;
43088;SDS011;28709;52.030;5.652;2022-08-21T08:10:19;5.70;;;2.05;;
43088;SDS011;28709;52.030;5.652;2022-08-21T08:12:45;6.80;;;2.10;;
43088;SDS011;28709;52.030;5.652;2022-08-21T08:15:14;3.90;;;2.47;;
43088;SDS011;28709;52.030;5.652;2022-08-21T08:17:42;12.25;;;3.85;;
43088;SDS011;28709;52.030;5.652;2022-08-21T08:20:09;7.80;;;3.17;;
43088;SDS011;28709;52.030;5.652;2022-08-21T08:22:37;6.70;;;2.70;;
43088;SDS011;28709;52.030;5.652;2022-08-21T08:25:04;10.85;;;3.35;;
43088;SDS011;28709;52.030;5.652;2022-08-21T08:27:31;8.88;;;2.55;;
43088;SDS011;28709;52.030;5.652;2022-08-21T08:29:57;5.85;;;2.03;;
43088;SDS011;28709;52.030;5.652;2022-08-21T08:32:23;5.90;;;2.72;;
43088;SDS011;28709;52.030;5.652;2022-08-21T08:34:49;8.50;;;2.55;;
43088;SDS011;28709;52.030;5.652;2022-08-21T08:37:16;7.78;;;2.42;;
43088;SDS011;28709;52.030;5.652;2022-08-21T08:39:44;8.52;;;2.50;;
43088;SDS011;28709;52.030;5.652;2022-08-21T08:44:41;6.88;;;2.63;;
43088;SDS011;28709;52.030;5.652;2022-08-21T08:47:08;5.30;;;2.17;;
43088;SDS011;28709;52.030;5.652;2022-08-21T08:52:30;6.60;;;2.72;;
43088;SDS011;28709;52.030;5.652;2022-08-21T08:55:06;5.43;;;2.55;;
43088;SDS011;28709;52.030;5.652;2022-08-21T08:57:33;7.13;;;2.05;;
43088;SDS011;28709;52.030;5.652;2022-08-21T09:00:01;5.93;;;1.95;;
43088;SDS011;28709;52.030;5.652;2022-08-21T09:02:33;13.02;;;2.28;;
43088;SDS011;28709;52.030;5.652;2022-08-21T09:04:59;5.30;;;1.92;;
43088;SDS011;28709;52.030;5.652;2022-08-21T09:10:22;5.43;;;1.50;;
43088;SDS011;28709;52.030;5.652;2022-08-21T09:15:59;7.00;;;1.75;;
43088;SDS011;28709;52.030;5.652;2022-08-21T09:29:30;5.15;;;1.55;;
43088;SDS011;28709;52.030;5.652;2022-08-21T09:31:58;3.25;;;1.33;;
43088;SDS011;28709;52.030;5.652;2022-08-21T09:34:26;5.78;;;2.22;;
43088;SDS011;28709;52.030;5.652;2022-08-21T09:36:54;7.68;;;1.95;;
43088;SDS011;28709;52.030;5.652;2022-08-21T09:39:31;4.43;;;1.40;;
43088;SDS011;28709;52.030;5.652;2022-08-21T09:42:05;7.07;;;2.08;;
43088;SDS011;28709;52.030;5.652;2022-08-21T09:44:35;6.07;;;1.80;;
43088;SDS011;28709;52.030;5.652;2022-08-21T09:49:35;3.60;;;1.63;;
43088;SDS011;28709;52.030;5.652;2022-08-21T09:52:04;3.85;;;1.20;;
43088;SDS011;28709;52.030;5.652;2022-08-21T09:54:46;3.50;;;1.17;;
43088;SDS011;28709;52.030;5.652;2022-08-21T09:57:29;4.65;;;1.67;;
43088;SDS011;28709;52.030;5.652;2022-08-21T10:00:15;9.07;;;1.98;;
43088;SDS011;28709;52.030;5.652;2022-08-21T10:02:49;4.43;;;1.52;;
43088;SDS011;28709;52.030;5.652;2022-08-21T10:05:19;3.83;;;1.33;;
43088;SDS011;28709;52.030;5.652;2022-08-21T10:07:50;8.07;;;1.90;;
43088;SDS011;28709;52.030;5.652;2022-08-21T10:10:22;5.00;;;1.25;;
43088;SDS011;28709;52.030;5.652;2022-08-21T10:18:32;4.20;;;1.67;;
43088;SDS011;28709;52.030;5.652;2022-08-21T10:21:07;6.78;;;1.70;;
43088;SDS011;28709;52.030;5.652;2022-08-21T10:26:57;5.78;;;1.42;;
43088;SDS011;28709;52.030;5.652;2022-08-21T10:32:24;5.63;;;1.55;;
43088;SDS011;28709;52.030;5.652;2022-08-21T10:38:12;7.30;;;1.50;;
43088;SDS011;28709;52.030;5.652;2022-08-21T10:43:51;4.68;;;1.40;;
43088;SDS011;28709;52.030;5.652;2022-08-21T10:55:00;5.15;;;1.27;;
43088;SDS011;28709;52.030;5.652;2022-08-21T11:00:20;4.10;;;1.20;;
43088;SDS011;28709;52.030;5.652;2022-08-21T11:02:58;3.08;;;1.30;;
43088;SDS011;28709;52.030;5.652;2022-08-21T11:08:22;5.70;;;1.38;;
43088;SDS011;28709;52.030;5.652;2022-08-21T11:10:55;3.47;;;1.48;;
43088;SDS011;28709;52.030;5.652;2022-08-21T11:16:02;5.43;;;1.20;;
43088;SDS011;28709;52.030;5.652;2022-08-21T11:18:39;6.95;;;1.52;;
43088;SDS011;28709;52.030;5.652;2022-08-21T11:24:12;3.00;;;1.00;;
43088;SDS011;28709;52.030;5.652;2022-08-21T11:29:37;4.55;;;1.13;;
43088;SDS011;28709;52.030;5.652;2022-08-21T11:37:59;3.38;;;1.00;;
43088;SDS011;28709;52.030;5.652;2022-08-21T11:40:54;2.38;;;0.88;;
43088;SDS011;28709;52.030;5.652;2022-08-21T11:43:44;2.80;;;1.10;;
43088;SDS011;28709;52.030;5.652;2022-08-21T11:54:36;3.47;;;1.00;;
43088;SDS011;28709;52.030;5.652;2022-08-21T11:59:52;2.60;;;0.98;;
43088;SDS011;28709;52.030;5.652;2022-08-21T12:02:19;5.50;;;1.15;;
43088;SDS011;28709;52.030;5.652;2022-08-21T12:04:53;3.45;;;1.17;;
43088;SDS011;28709;52.030;5.652;2022-08-21T12:07:44;2.67;;;1.10;;
43088;SDS011;28709;52.030;5.652;2022-08-21T12:10:12;5.20;;;1.27;;
43088;SDS011;28709;52.030;5.652;2022-08-21T12:12:41;3.85;;;1.08;;
43088;SDS011;28709;52.030;5.652;2022-08-21T12:25:37;4.03;;;1.00;;
43088;SDS011;28709;52.030;5.652;2022-08-21T12:28:08;2.90;;;0.85;;
43088;SDS011;28709;52.030;5.652;2022-08-21T12:30:38;2.50;;;0.98;;
43088;SDS011;28709;52.030;5.652;2022-08-21T12:35:45;2.28;;;1.00;;
43088;SDS011;28709;52.030;5.652;2022-08-21T12:40:52;3.03;;;1.00;;
43088;SDS011;28709;52.030;5.652;2022-08-21T12:43:29;1.05;;;0.80;;
43088;SDS011;28709;52.030;5.652;2022-08-21T12:45:58;2.65;;;1.13;;
43088;SDS011;28709;52.030;5.652;2022-08-21T12:48:29;4.13;;;1.25;;
43088;SDS011;28709;52.030;5.652;2022-08-21T12:51:16;2.92;;;1.02;;
43088;SDS011;28709;52.030;5.652;2022-08-21T12:53:49;3.50;;;0.95;;
43088;SDS011;28709;52.030;5.652;2022-08-21T12:56:18;2.58;;;0.88;;
43088;SDS011;28709;52.030;5.652;2022-08-21T12:58:53;4.07;;;0.80;;
43088;SDS011;28709;52.030;5.652;2022-08-21T13:01:33;2.72;;;0.60;;
43088;SDS011;28709;52.030;5.652;2022-08-21T13:04:02;2.05;;;0.93;;
43088;SDS011;28709;52.030;5.652;2022-08-21T13:09:06;2.50;;;0.77;;
43088;SDS011;28709;52.030;5.652;2022-08-21T13:11:35;1.67;;;0.70;;
43088;SDS011;28709;52.030;5.652;2022-08-21T13:14:02;5.57;;;1.73;;
43088;SDS011;28709;52.030;5.652;2022-08-21T13:16:29;3.95;;;1.42;;
43088;SDS011;28709;52.030;5.652;2022-08-21T13:18:57;4.07;;;1.00;;
43088;SDS011;28709;52.030;5.652;2022-08-21T13:21:33;2.47;;;0.80;;
43088;SDS011;28709;52.030;5.652;2022-08-21T13:24:17;2.85;;;0.82;;
43088;SDS011;28709;52.030;5.652;2022-08-21T13:26:43;2.40;;;0.90;;
43088;SDS011;28709;52.030;5.652;2022-08-21T13:29:10;5.20;;;1.13;;
43088;SDS011;28709;52.030;5.652;2022-08-21T13:31:38;4.82;;;1.08;;
43088;SDS011;28709;52.030;5.652;2022-08-21T13:34:07;3.42;;;0.90;;
43088;SDS011;28709;52.030;5.652;2022-08-21T13:36:36;1.05;;;0.65;;
43088;SDS011;28709;52.030;5.652;2022-08-21T13:39:06;2.63;;;1.20;;
43088;SDS011;28709;52.030;5.652;2022-08-21T13:41:35;3.17;;;1.33;;
43088;SDS011;28709;52.030;5.652;2022-08-21T13:46:31;2.00;;;0.50;;
43088;SDS011;28709;52.030;5.652;2022-08-21T13:48:59;4.25;;;1.10;;
43088;SDS011;28709;52.030;5.652;2022-08-21T13:51:27;1.98;;;0.82;;
43088;SDS011;28709;52.030;5.652;2022-08-21T13:53:54;3.13;;;0.90;;
43088;SDS011;28709;52.030;5.652;2022-08-21T13:59:09;2.28;;;1.02;;
43088;SDS011;28709;52.030;5.652;2022-08-21T14:01:54;2.55;;;1.10;;
43088;SDS011;28709;52.030;5.652;2022-08-21T14:04:35;2.60;;;1.23;;
43088;SDS011;28709;52.030;5.652;2022-08-21T14:07:03;5.32;;;1.65;;
43088;SDS011;28709;52.030;5.652;2022-08-21T14:09:41;4.38;;;1.00;;
43088;SDS011;28709;52.030;5.652;2022-08-21T14:12:16;3.50;;;1.52;;
43088;SDS011;28709;52.030;5.652;2022-08-21T14:14:55;2.20;;;0.88;;
43088;SDS011;28709;52.030;5.652;2022-08-21T14:17:27;2.90;;;1.08;;
43088;SDS011;28709;52.030;5.652;2022-08-21T14:19:54;3.28;;;1.05;;
43088;SDS011;28709;52.030;5.652;2022-08-21T14:22:39;1.73;;;0.77;;
43088;SDS011;28709;52.030;5.652;2022-08-21T14:25:08;2.60;;;0.88;;
43088;SDS011;28709;52.030;5.652;2022-08-21T14:28:02;6.55;;;0.93;;
43088;SDS011;28709;52.030;5.652;2022-08-21T14:30:37;4.65;;;0.98;;
43088;SDS011;28709;52.030;5.652;2022-08-21T14:33:08;2.97;;;0.95;;
43088;SDS011;28709;52.030;5.652;2022-08-21T14:35:36;4.82;;;1.42;;
43088;SDS011;28709;52.030;5.652;2022-08-21T14:38:02;2.42;;;0.82;;
43088;SDS011;28709;52.030;5.652;2022-08-21T14:40:40;3.17;;;1.13;;
43088;SDS011;28709;52.030;5.652;2022-08-21T14:43:06;5.35;;;1.30;;
43088;SDS011;28709;52.030;5.652;2022-08-21T14:45:33;4.40;;;1.02;;
43088;SDS011;28709;52.030;5.652;2022-08-21T14:48:01;4.55;;;1.00;;
43088;SDS011;28709;52.030;5.652;2022-08-21T14:50:27;1.80;;;0.80;;
43088;SDS011;28709;52.030;5.652;2022-08-21T14:52:54;3.00;;;0.90;;
43088;SDS011;28709;52.030;5.652;2022-08-21T14:55:19;2.40;;;1.15;;
43088;SDS011;28709;52.030;5.652;2022-08-21T14:57:46;4.45;;;0.80;;
43088;SDS011;28709;52.030;5.652;2022-08-21T15:00:15;2.95;;;1.00;;
43088;SDS011;28709;52.030;5.652;2022-08-21T15:02:43;3.17;;;1.15;;
43088;SDS011;28709;52.030;5.652;2022-08-21T15:05:09;2.35;;;0.77;;
43088;SDS011;28709;52.030;5.652;2022-08-21T15:07:34;1.50;;;0.68;;
43088;SDS011;28709;52.030;5.652;2022-08-21T15:10:00;5.30;;;1.27;;
43088;SDS011;28709;52.030;5.652;2022-08-21T15:12:27;3.92;;;1.25;;
43088;SDS011;28709;52.030;5.652;2022-08-21T15:14:53;2.92;;;1.05;;
43088;SDS011;28709;52.030;5.652;2022-08-21T15:17:19;1.48;;;0.95;;
43088;SDS011;28709;52.030;5.652;2022-08-21T15:19:45;3.35;;;0.82;;
43088;SDS011;28709;52.030;5.652;2022-08-21T15:22:11;2.58;;;0.90;;
43088;SDS011;28709;52.030;5.652;2022-08-21T15:24:36;2.17;;;0.68;;
43088;SDS011;28709;52.030;5.652;2022-08-21T15:27:03;3.03;;;1.42;;
43088;SDS011;28709;52.030;5.652;2022-08-21T15:29:31;3.58;;;1.02;;
43088;SDS011;28709;52.030;5.652;2022-08-21T15:31:59;3.30;;;0.93;;
43088;SDS011;28709;52.030;5.652;2022-08-21T15:34:27;5.85;;;0.98;;
43088;SDS011;28709;52.030;5.652;2022-08-21T15:36:54;2.97;;;0.70;;
43088;SDS011;28709;52.030;5.652;2022-08-21T15:39:21;3.85;;;0.90;;
43088;SDS011;28709;52.030;5.652;2022-08-21T15:41:47;5.60;;;1.08;;
43088;SDS011;28709;52.030;5.652;2022-08-21T15:44:13;3.60;;;1.23;;
43088;SDS011;28709;52.030;5.652;2022-08-21T15:46:40;1.65;;;0.93;;
43088;SDS011;28709;52.030;5.652;2022-08-21T15:49:06;4.38;;;1.33;;
43088;SDS011;28709;52.030;5.652;2022-08-21T15:51:32;3.55;;;1.00;;
43088;SDS011;28709;52.030;5.652;2022-08-21T15:53:59;4.97;;;1.20;;
43088;SDS011;28709;52.030;5.652;2022-08-21T15:56:34;3.10;;;1.08;;
43088;SDS011;28709;52.030;5.652;2022-08-21T15:59:05;3.80;;;0.98;;
43088;SDS011;28709;52.030;5.652;2022-08-21T16:01:34;4.75;;;1.23;;
43088;SDS011;28709;52.030;5.652;2022-08-21T16:04:00;4.03;;;0.90;;
43088;SDS011;28709;52.030;5.652;2022-08-21T16:06:27;4.65;;;1.05;;
43088;SDS011;28709;52.030;5.652;2022-08-21T16:08:53;2.38;;;1.00;;
43088;SDS011;28709;52.030;5.652;2022-08-21T16:11:19;3.53;;;1.05;;
43088;SDS011;28709;52.030;5.652;2022-08-21T16:13:45;2.67;;;1.05;;
43088;SDS011;28709;52.030;5.652;2022-08-21T16:16:12;2.95;;;0.98;;
43088;SDS011;28709;52.030;5.652;2022-08-21T16:18:41;4.03;;;1.17;;
43088;SDS011;28709;52.030;5.652;2022-08-21T16:21:08;4.80;;;1.20;;
43088;SDS011;28709;52.030;5.652;2022-08-21T16:23:34;4.35;;;0.82;;
43088;SDS011;28709;52.030;5.652;2022-08-21T16:26:01;3.35;;;1.20;;
43088;SDS011;28709;52.030;5.652;2022-08-21T16:28:28;4.93;;;1.35;;
43088;SDS011;28709;52.030;5.652;2022-08-21T16:30:55;3.60;;;1.20;;
43088;SDS011;28709;52.030;5.652;2022-08-21T16:33:24;3.95;;;0.82;;
43088;SDS011;28709;52.030;5.652;2022-08-21T16:35:55;2.10;;;1.20;;
43088;SDS011;28709;52.030;5.652;2022-08-21T16:38:21;2.40;;;1.05;;
43088;SDS011;28709;52.030;5.652;2022-08-21T16:40:46;3.67;;;1.08;;
43088;SDS011;28709;52.030;5.652;2022-08-21T16:43:12;3.17;;;1.05;;
43088;SDS011;28709;52.030;5.652;2022-08-21T16:45:41;3.85;;;1.10;;